Terminal Aerodrome Forecast
Issued by NWS

Home | Current Version | Previous Version | Text Only | Print | Product List | Glossary On
Versions: 1 2 3 4 5 6 7 8 9 10 11 12 13 14
000
FTUS41 KAKQ 281100
TAFPHF
TAF
KPHF 281120Z 2812/2912 25012G20KT P6SM SCT250
     FM281600 27014G24KT P6SM SCT070
     FM282300 31008KT P6SM SCT250
     FM290300 34006KT P6SM SKC=

USA.gov is the U.S. government's official web portal to all federal, state and local government web resources and services.